Airport View

Enter AWOS ICAO identifier for current METAR.

ex. KFNL

KECU 031655Z AUTO 14008KT CLR 28/18 A3014 RMK AO2

3 Jul 2020 17:07

Frequency: 118.175

Phone: 830-683-2425

Other Area AWOS: KJCT - KSOA - KUVA - KDLF

TAF KJCT 031128Z 0312/0412 18007KT P6SM SCT018 FM031900 16010G17KT P6SM SCT250 FM040000 16010KT P6SM SCT250